sensor_id;sensor_type;location;lat;lon;timestamp;pressure;altitude;pressure_sealevel;temperature;humidity
59686;BME280;45554;51.096;16.976;2024-01-30T00:02:27;101781.10;;;1.95;66.01
59686;BME280;45554;51.096;16.976;2024-01-30T00:04:58;101777.30;;;1.95;65.91
59686;BME280;45554;51.096;16.976;2024-01-30T00:07:31;101778.68;;;1.96;65.99
59686;BME280;45554;51.096;16.976;2024-01-30T00:10:01;101779.02;;;1.97;66.09
59686;BME280;45554;51.096;16.976;2024-01-30T00:12:29;101776.59;;;1.96;66.05
59686;BME280;45554;51.096;16.976;2024-01-30T00:14:57;101782.13;;;1.96;66.17
59686;BME280;45554;51.096;16.976;2024-01-30T00:17:26;101782.64;;;1.95;66.05
59686;BME280;45554;51.096;16.976;2024-01-30T00:20:00;101781.26;;;1.94;66.17
59686;BME280;45554;51.096;16.976;2024-01-30T00:22:33;101784.54;;;1.94;66.27
59686;BME280;45554;51.096;16.976;2024-01-30T00:25:01;101788.16;;;1.92;66.29
59686;BME280;45554;51.096;16.976;2024-01-30T00:27:31;101792.48;;;1.92;66.22
59686;BME280;45554;51.096;16.976;2024-01-30T00:30:00;101791.11;;;1.91;66.35
59686;BME280;45554;51.096;16.976;2024-01-30T00:32:28;101787.11;;;1.89;66.54
59686;BME280;45554;51.096;16.976;2024-01-30T00:34:56;101792.98;;;1.87;66.41
59686;BME280;45554;51.096;16.976;2024-01-30T00:37:25;101793.31;;;1.86;66.38
59686;BME280;45554;51.096;16.976;2024-01-30T00:39:53;101787.60;;;1.84;66.63
59686;BME280;45554;51.096;16.976;2024-01-30T00:42:22;101783.95;;;1.80;66.56
59686;BME280;45554;51.096;16.976;2024-01-30T00:44:54;101788.27;;;1.81;66.52
59686;BME280;45554;51.096;16.976;2024-01-30T00:47:28;101785.86;;;1.79;66.84
59686;BME280;45554;51.096;16.976;2024-01-30T00:50:00;101786.01;;;1.77;66.70
59686;BME280;45554;51.096;16.976;2024-01-30T00:52:28;101785.31;;;1.75;66.88
59686;BME280;45554;51.096;16.976;2024-01-30T00:55:40;101785.65;;;1.75;66.93
59686;BME280;45554;51.096;16.976;2024-01-30T00:58:09;101781.16;;;1.74;67.01
59686;BME280;45554;51.096;16.976;2024-01-30T01:00:43;101779.77;;;1.74;67.07
59686;BME280;45554;51.096;16.976;2024-01-30T01:03:11;101780.30;;;1.75;67.00
59686;BME280;45554;51.096;16.976;2024-01-30T01:05:40;101786.00;;;1.74;67.09
59686;BME280;45554;51.096;16.976;2024-01-30T01:08:10;101792.73;;;1.74;66.99
59686;BME280;45554;51.096;16.976;2024-01-30T01:10:39;101790.15;;;1.75;67.06
59686;BME280;45554;51.096;16.976;2024-01-30T01:13:09;101788.59;;;1.75;67.25
59686;BME280;45554;51.096;16.976;2024-01-30T01:15:41;101784.45;;;1.75;67.18
59686;BME280;45554;51.096;16.976;2024-01-30T01:18:09;101781.85;;;1.74;67.09
59686;BME280;45554;51.096;16.976;2024-01-30T01:20:37;101783.03;;;1.71;67.05
59686;BME280;45554;51.096;16.976;2024-01-30T01:23:06;101788.20;;;1.67;67.13
59686;BME280;45554;51.096;16.976;2024-01-30T01:25:34;101791.63;;;1.63;67.37
59686;BME280;45554;51.096;16.976;2024-01-30T01:28:02;101789.02;;;1.60;67.34
59686;BME280;45554;51.096;16.976;2024-01-30T01:30:31;101784.66;;;1.56;67.58
59686;BME280;45554;51.096;16.976;2024-01-30T01:33:00;101776.15;;;1.48;67.61
59686;BME280;45554;51.096;16.976;2024-01-30T01:35:30;101778.23;;;1.48;67.53
59686;BME280;45554;51.096;16.976;2024-01-30T01:37:59;101777.17;;;1.46;67.78
59686;BME280;45554;51.096;16.976;2024-01-30T01:40:29;101777.48;;;1.41;67.84
59686;BME280;45554;51.096;16.976;2024-01-30T01:42:57;101774.01;;;1.38;67.82
59686;BME280;45554;51.096;16.976;2024-01-30T01:45:25;101773.45;;;1.33;67.99
59686;BME280;45554;51.096;16.976;2024-01-30T01:47:54;101782.25;;;1.31;68.13
59686;BME280;45554;51.096;16.976;2024-01-30T01:50:22;101778.59;;;1.26;68.21
59686;BME280;45554;51.096;16.976;2024-01-30T01:52:58;101776.48;;;1.22;68.35
59686;BME280;45554;51.096;16.976;2024-01-30T01:55:28;101776.47;;;1.20;68.41
59686;BME280;45554;51.096;16.976;2024-01-30T01:57:58;101773.52;;;1.18;68.57
59686;BME280;45554;51.096;16.976;2024-01-30T02:00:28;101768.49;;;1.15;68.50
59686;BME280;45554;51.096;16.976;2024-01-30T02:07:28;101766.20;;;1.11;68.87
59686;BME280;45554;51.096;16.976;2024-01-30T02:09:57;101767.03;;;1.06;69.00
59686;BME280;45554;51.096;16.976;2024-01-30T02:12:25;101762.33;;;1.02;69.02
59686;BME280;45554;51.096;16.976;2024-01-30T02:14:53;101761.44;;;0.97;69.13
59686;BME280;45554;51.096;16.976;2024-01-30T02:17:27;101766.41;;;0.95;69.22
59686;BME280;45554;51.096;16.976;2024-01-30T02:19:56;101761.38;;;0.91;69.18
59686;BME280;45554;51.096;16.976;2024-01-30T02:22:25;101758.23;;;0.87;69.53
59686;BME280;45554;51.096;16.976;2024-01-30T02:24:53;101756.32;;;0.85;69.78
59686;BME280;45554;51.096;16.976;2024-01-30T02:27:22;101757.02;;;0.86;69.75
59686;BME280;45554;51.096;16.976;2024-01-30T02:29:57;101760.80;;;0.85;70.13
59686;BME280;45554;51.096;16.976;2024-01-30T02:32:31;101764.42;;;0.84;69.99
59686;BME280;45554;51.096;16.976;2024-01-30T02:34:59;101762.54;;;0.85;70.53
59686;BME280;45554;51.096;16.976;2024-01-30T02:37:30;101754.40;;;0.83;70.44
59686;BME280;45554;51.096;16.976;2024-01-30T02:39:58;101759.27;;;0.86;70.29
59686;BME280;45554;51.096;16.976;2024-01-30T02:42:26;101731.19;;;0.73;70.82
59686;BME280;45554;51.096;16.976;2024-01-30T02:45:00;101753.39;;;0.87;70.91
59686;BME280;45554;51.096;16.976;2024-01-30T02:47:28;101758.27;;;0.89;71.03
59686;BME280;45554;51.096;16.976;2024-01-30T02:49:58;101756.73;;;0.92;70.89
59686;BME280;45554;51.096;16.976;2024-01-30T02:52:29;101757.10;;;0.95;71.24
59686;BME280;45554;51.096;16.976;2024-01-30T02:54:58;101757.29;;;0.98;71.08
59686;BME280;45554;51.096;16.976;2024-01-30T02:57:27;101764.92;;;1.01;70.94
59686;BME280;45554;51.096;16.976;2024-01-30T03:00:16;101767.86;;;1.02;71.21
59686;BME280;45554;51.096;16.976;2024-01-30T03:02:44;101763.55;;;1.02;71.13
59686;BME280;45554;51.096;16.976;2024-01-30T03:05:12;101761.80;;;1.01;70.79
59686;BME280;45554;51.096;16.976;2024-01-30T03:07:40;101762.12;;;0.98;71.00
59686;BME280;45554;51.096;16.976;2024-01-30T03:10:09;101763.66;;;0.94;70.92
59686;BME280;45554;51.096;16.976;2024-01-30T03:12:39;101762.94;;;0.91;71.02
59686;BME280;45554;51.096;16.976;2024-01-30T03:15:08;101761.02;;;0.89;71.05
59686;BME280;45554;51.096;16.976;2024-01-30T03:17:39;101760.96;;;0.83;71.09
59686;BME280;45554;51.096;16.976;2024-01-30T03:20:07;101764.26;;;0.85;71.31
59686;BME280;45554;51.096;16.976;2024-01-30T03:22:36;101764.56;;;0.82;71.33
59686;BME280;45554;51.096;16.976;2024-01-30T03:25:07;101763.71;;;0.81;71.36
59686;BME280;45554;51.096;16.976;2024-01-30T03:27:38;101761.27;;;0.79;71.02
59686;BME280;45554;51.096;16.976;2024-01-30T03:30:08;101758.30;;;0.76;71.74
59686;BME280;45554;51.096;16.976;2024-01-30T03:32:41;101753.45;;;0.74;71.53
59686;BME280;45554;51.096;16.976;2024-01-30T03:35:12;101749.64;;;0.72;71.61
59686;BME280;45554;51.096;16.976;2024-01-30T03:37:44;101748.59;;;0.70;71.84
59686;BME280;45554;51.096;16.976;2024-01-30T03:40:12;101750.64;;;0.69;71.89
59686;BME280;45554;51.096;16.976;2024-01-30T03:42:41;101752.55;;;0.68;72.17
59686;BME280;45554;51.096;16.976;2024-01-30T03:45:09;101754.09;;;0.67;72.09
59686;BME280;45554;51.096;16.976;2024-01-30T03:47:43;101732.50;;;0.66;72.20
59686;BME280;45554;51.096;16.976;2024-01-30T03:50:14;101733.17;;;0.64;72.14
59686;BME280;45554;51.096;16.976;2024-01-30T03:52:45;101741.78;;;0.62;72.61
59686;BME280;45554;51.096;16.976;2024-01-30T03:55:13;101754.39;;;0.63;72.39
59686;BME280;45554;51.096;16.976;2024-01-30T03:57:44;101746.60;;;0.60;72.10
59686;BME280;45554;51.096;16.976;2024-01-30T04:00:15;101742.77;;;0.56;72.03
59686;BME280;45554;51.096;16.976;2024-01-30T04:02:44;101738.41;;;0.52;72.17
59686;BME280;45554;51.096;16.976;2024-01-30T04:05:13;101740.63;;;0.49;72.32
59686;BME280;45554;51.096;16.976;2024-01-30T04:07:44;101742.50;;;0.47;72.25
59686;BME280;45554;51.096;16.976;2024-01-30T04:10:14;101748.68;;;0.45;72.56
59686;BME280;45554;51.096;16.976;2024-01-30T04:12:42;101745.39;;;0.43;72.70
59686;BME280;45554;51.096;16.976;2024-01-30T04:15:10;101749.73;;;0.45;73.00
59686;BME280;45554;51.096;16.976;2024-01-30T04:17:40;101748.18;;;0.46;72.79
59686;BME280;45554;51.096;16.976;2024-01-30T04:20:13;101745.25;;;0.46;73.07
59686;BME280;45554;51.096;16.976;2024-01-30T04:22:46;101744.40;;;0.47;73.03
59686;BME280;45554;51.096;16.976;2024-01-30T04:25:17;101742.69;;;0.48;73.10
59686;BME280;45554;51.096;16.976;2024-01-30T04:27:48;101739.41;;;0.48;73.27
59686;BME280;45554;51.096;16.976;2024-01-30T04:30:21;101737.35;;;0.49;73.43
59686;BME280;45554;51.096;16.976;2024-01-30T04:32:49;101739.09;;;0.50;73.35
59686;BME280;45554;51.096;16.976;2024-01-30T04:35:17;101740.13;;;0.52;73.66
59686;BME280;45554;51.096;16.976;2024-01-30T04:37:45;101738.42;;;0.54;73.50
59686;BME280;45554;51.096;16.976;2024-01-30T04:40:14;101743.96;;;0.56;73.52
59686;BME280;45554;51.096;16.976;2024-01-30T04:42:51;101747.95;;;0.57;73.63
59686;BME280;45554;51.096;16.976;2024-01-30T04:45:19;101743.83;;;0.58;73.91
59686;BME280;45554;51.096;16.976;2024-01-30T04:48:31;101741.40;;;0.58;73.84
59686;BME280;45554;51.096;16.976;2024-01-30T04:51:00;101750.39;;;0.60;73.91
59686;BME280;45554;51.096;16.976;2024-01-30T04:53:31;101749.37;;;0.60;73.76
59686;BME280;45554;51.096;16.976;2024-01-30T04:55:59;101754.17;;;0.59;73.68
59686;BME280;45554;51.096;16.976;2024-01-30T04:58:27;101745.88;;;0.57;73.48
59686;BME280;45554;51.096;16.976;2024-01-30T05:00:55;101746.39;;;0.56;73.72
59686;BME280;45554;51.096;16.976;2024-01-30T05:03:25;101746.91;;;0.56;73.66
59686;BME280;45554;51.096;16.976;2024-01-30T05:05:54;101753.27;;;0.56;73.99
59686;BME280;45554;51.096;16.976;2024-01-30T05:08:22;101749.66;;;0.57;73.91
59686;BME280;45554;51.096;16.976;2024-01-30T05:12:24;101748.29;;;0.57;74.05
59686;BME280;45554;51.096;16.976;2024-01-30T05:14:56;101746.73;;;0.56;73.66
59686;BME280;45554;51.096;16.976;2024-01-30T05:17:24;101748.12;;;0.57;74.06
59686;BME280;45554;51.096;16.976;2024-01-30T05:19:52;101748.42;;;0.55;73.87
59686;BME280;45554;51.096;16.976;2024-01-30T05:22:20;101742.22;;;0.54;73.95
59686;BME280;45554;51.096;16.976;2024-01-30T05:24:49;101745.32;;;0.53;74.17
59686;BME280;45554;51.096;16.976;2024-01-30T05:31:50;101745.65;;;0.53;74.32
59686;BME280;45554;51.096;16.976;2024-01-30T05:34:19;101747.73;;;0.53;74.29
59686;BME280;45554;51.096;16.976;2024-01-30T05:36:47;101751.70;;;0.53;74.27
59686;BME280;45554;51.096;16.976;2024-01-30T05:39:15;101746.85;;;0.51;74.04
59686;BME280;45554;51.096;16.976;2024-01-30T05:41:48;101749.77;;;0.49;74.45
59686;BME280;45554;51.096;16.976;2024-01-30T05:44:21;101752.36;;;0.49;74.26
59686;BME280;45554;51.096;16.976;2024-01-30T05:46:49;101753.89;;;0.48;74.66
59686;BME280;45554;51.096;16.976;2024-01-30T05:49:17;101752.86;;;0.47;74.53
59686;BME280;45554;51.096;16.976;2024-01-30T05:51:46;101755.29;;;0.49;74.52
59686;BME280;45554;51.096;16.976;2024-01-30T05:54:19;101755.13;;;0.50;74.39
59686;BME280;45554;51.096;16.976;2024-01-30T05:56:48;101753.93;;;0.51;74.48
59686;BME280;45554;51.096;16.976;2024-01-30T05:59:16;101757.04;;;0.52;74.71
59686;BME280;45554;51.096;16.976;2024-01-30T06:01:47;101759.48;;;0.52;74.58
59686;BME280;45554;51.096;16.976;2024-01-30T06:04:17;101754.30;;;0.54;74.87
59686;BME280;45554;51.096;16.976;2024-01-30T06:06:45;101758.66;;;0.57;74.67
59686;BME280;45554;51.096;16.976;2024-01-30T06:09:14;101767.83;;;0.61;75.01
59686;BME280;45554;51.096;16.976;2024-01-30T06:11:42;101764.71;;;0.60;74.13
59686;BME280;45554;51.096;16.976;2024-01-30T06:14:14;101760.71;;;0.57;74.25
59686;BME280;45554;51.096;16.976;2024-01-30T06:16:42;101758.29;;;0.55;74.48
59686;BME280;45554;51.096;16.976;2024-01-30T06:19:10;101764.14;;;0.55;74.64
59686;BME280;45554;51.096;16.976;2024-01-30T06:21:40;101761.41;;;0.57;74.39
59686;BME280;45554;51.096;16.976;2024-01-30T06:24:14;101755.90;;;0.59;74.86
59686;BME280;45554;51.096;16.976;2024-01-30T06:26:43;101756.27;;;0.62;74.50
59686;BME280;45554;51.096;16.976;2024-01-30T06:29:11;101760.64;;;0.68;74.91
59686;BME280;45554;51.096;16.976;2024-01-30T06:31:40;101758.98;;;0.73;74.95
59686;BME280;45554;51.096;16.976;2024-01-30T06:34:09;101746.52;;;0.70;74.54
59686;BME280;45554;51.096;16.976;2024-01-30T06:36:39;101753.19;;;0.81;74.46
59686;BME280;45554;51.096;16.976;2024-01-30T06:39:08;101738.16;;;0.81;74.33
59686;BME280;45554;51.096;16.976;2024-01-30T06:41:36;101745.86;;;0.93;74.80
59686;BME280;45554;51.096;16.976;2024-01-30T06:44:04;101752.30;;;1.00;74.48
59686;BME280;45554;51.096;16.976;2024-01-30T06:46:35;101752.70;;;1.06;74.19
59686;BME280;45554;51.096;16.976;2024-01-30T06:49:03;101754.64;;;1.11;74.17
59686;BME280;45554;51.096;16.976;2024-01-30T06:51:31;101752.27;;;1.18;73.89
59686;BME280;45554;51.096;16.976;2024-01-30T06:53:59;101747.14;;;1.23;74.21
59686;BME280;45554;51.096;16.976;2024-01-30T06:56:28;101752.52;;;1.29;74.17
59686;BME280;45554;51.096;16.976;2024-01-30T06:58:59;101758.09;;;1.34;73.72
59686;BME280;45554;51.096;16.976;2024-01-30T07:01:37;101762.27;;;1.40;73.53
59686;BME280;45554;51.096;16.976;2024-01-30T07:04:11;101756.60;;;1.45;73.48
59686;BME280;45554;51.096;16.976;2024-01-30T07:06:41;101754.21;;;1.49;73.76
59686;BME280;45554;51.096;16.976;2024-01-30T07:09:16;101747.16;;;1.56;73.46
59686;BME280;45554;51.096;16.976;2024-01-30T07:12:27;101744.79;;;1.63;73.43
59686;BME280;45554;51.096;16.976;2024-01-30T07:15:34;101746.56;;;1.70;73.12
59686;BME280;45554;51.096;16.976;2024-01-30T07:18:55;101749.38;;;1.78;72.88
59686;BME280;45554;51.096;16.976;2024-01-30T07:23:30;101754.43;;;1.90;72.73
59686;BME280;45554;51.096;16.976;2024-01-30T07:26:20;101753.95;;;1.98;72.58
59686;BME280;45554;51.096;16.976;2024-01-30T07:32:45;101759.73;;;2.14;72.01
59686;BME280;45554;51.096;16.976;2024-01-30T07:37:15;101763.75;;;2.28;71.80
59686;BME280;45554;51.096;16.976;2024-01-30T07:44:27;101768.48;;;2.47;71.34
59686;BME280;45554;51.096;16.976;2024-01-30T07:51:50;101770.59;;;2.62;70.81
59686;BME280;45554;51.096;16.976;2024-01-30T09:47:55;101716.86;;;6.29;60.41
59686;BME280;45554;51.096;16.976;2024-01-30T16:51:23;101551.67;;;6.04;55.67
59686;BME280;45554;51.096;16.976;2024-01-30T16:56:16;101547.11;;;5.93;55.75
59686;BME280;45554;51.096;16.976;2024-01-30T18:01:49;101545.01;;;5.04;58.57
59686;BME280;45554;51.096;16.976;2024-01-30T18:07:04;101540.47;;;4.90;58.64
59686;BME280;45554;51.096;16.976;2024-01-30T18:58:13;101549.70;;;3.90;60.73
59686;BME280;45554;51.096;16.976;2024-01-30T19:02:33;101556.52;;;3.83;61.17
59686;BME280;45554;51.096;16.976;2024-01-30T19:45:58;101547.48;;;3.82;61.94
59686;BME280;45554;51.096;16.976;2024-01-30T20:38:24;101554.58;;;4.32;64.33
